Haltom City, Texas
Current Conditions -  °F | °C
As of 3:53 AM on Saturday 25 Oct 2014 (Local Time) from KFTW Reporting Station
Clear Clear  
Wind Chill: 19°   Ceiling: Unl
Heat Index: 19°   Visibility: 10mi
Dew Point: 15°   Wind: 7mph
Humidity: 76%   Direction: 180°S
Pressure: 30.09"   Gusts: NA
Location:  32.81°N, 97.27°W
Report Text: KFTW 250853Z AUTO 18006KT 10SM CLR 19/15 A3009 RMK AO2 SLP180 T01940150 50000
Loading
Personal Weather Stations






























Interactive Weather Map
Tropical Storm Tracking
New forecast layout! Learn more

10-Day Weather Forecast

Advertisements
Track Severe Weather on mobile